createdAt,value
2022-10-26T00:00:03.451Z,10.4
2022-10-26T00:05:01.676Z,10.5
2022-10-26T00:10:02.495Z,10.2
2022-10-26T00:15:02.313Z,9.6
2022-10-26T00:20:01.657Z,9.1
2022-10-26T00:25:01.659Z,8.9
2022-10-26T00:30:03.662Z,8.4
2022-10-26T00:35:46.471Z,8.9
2022-10-26T00:40:01.679Z,9.9
2022-10-26T00:45:17.301Z,10.2
2022-10-26T00:55:01.622Z,10.6
2022-10-26T01:00:03.219Z,10.6
2022-10-26T01:05:01.762Z,9.7
2022-10-26T01:10:01.623Z,9.6
2022-10-26T01:15:02.642Z,10.2
2022-10-26T01:20:17.079Z,9.6
2022-10-26T01:25:01.590Z,9.2
2022-10-26T01:30:17.150Z,10.0
2022-10-26T01:35:01.719Z,9.6
2022-10-26T01:40:01.731Z,9.2
2022-10-26T01:45:05.957Z,9.3
2022-10-26T01:55:01.636Z,9.2
2022-10-26T02:00:05.681Z,8.8
2022-10-26T02:05:01.626Z,8.2
2022-10-26T02:10:01.643Z,7.9
2022-10-26T02:15:15.536Z,7.7
2022-10-26T02:20:01.634Z,7.7
2022-10-26T02:25:01.645Z,8.9
2022-10-26T02:30:04.005Z,9.3
2022-10-26T02:35:01.663Z,9.8
2022-10-26T02:40:01.717Z,10.2
2022-10-26T02:45:04.852Z,10.0
2022-10-26T02:50:01.647Z,9.4
2022-10-26T02:55:01.689Z,9.9
2022-10-26T03:00:02.848Z,10.4
2022-10-26T03:05:17.378Z,11.1
2022-10-26T03:10:01.676Z,12.0
2022-10-26T03:15:02.623Z,15.4
2022-10-26T03:20:01.632Z,16.0
2022-10-26T03:25:01.793Z,15.7
2022-10-26T03:30:02.745Z,16.0
2022-10-26T03:35:01.667Z,16.5
2022-10-26T03:40:01.638Z,13.8
2022-10-26T03:45:03.257Z,13.3
2022-10-26T03:55:01.729Z,13.2
2022-10-26T04:00:02.218Z,11.6
2022-10-26T04:10:01.621Z,12.5
2022-10-26T04:20:01.669Z,13.2
2022-10-26T04:25:01.695Z,14.6
2022-10-26T04:30:02.111Z,15.5
2022-10-26T04:35:01.636Z,14.9
2022-10-26T04:40:01.985Z,15.3
2022-10-26T04:45:02.482Z,14.5
2022-10-26T04:51:01.591Z,14.4
2022-10-26T04:56:01.653Z,14.0
2022-10-26T05:01:01.806Z,13.2
2022-10-26T05:06:01.610Z,13.6
2022-10-26T05:11:01.726Z,14.9
2022-10-26T05:16:01.655Z,14.4
2022-10-26T05:21:01.631Z,14.8
2022-10-26T05:26:01.614Z,15.5
2022-10-26T05:31:02.062Z,14.3
2022-10-26T05:36:02.379Z,13.2
2022-10-26T05:41:01.629Z,13.6
2022-10-26T05:46:01.582Z,12.7
2022-10-26T05:51:01.718Z,12.8
2022-10-26T05:56:01.646Z,12.7
2022-10-26T06:06:07.266Z,12.7
2022-10-26T06:11:01.688Z,13.5
2022-10-26T06:16:01.710Z,14.3
2022-10-26T06:21:01.604Z,15.0
2022-10-26T06:26:08.954Z,15.6
2022-10-26T06:31:01.618Z,16.0
2022-10-26T06:36:01.608Z,16.7
2022-10-26T06:46:01.618Z,16.4
2022-10-26T06:51:01.730Z,16.4
2022-10-26T06:56:01.649Z,16.2
2022-10-26T07:01:01.636Z,15.2
2022-10-26T07:06:02.055Z,15.2
2022-10-26T07:11:02.173Z,15.2
2022-10-26T07:16:01.757Z,15.5
2022-10-26T07:22:01.676Z,15.7
2022-10-26T07:27:01.732Z,16.8
2022-10-26T07:32:01.660Z,17.3
2022-10-26T07:37:01.684Z,17.9
2022-10-26T07:42:02.103Z,18.4
2022-10-26T07:47:02.097Z,18.4
2022-10-26T07:52:01.658Z,18.4
2022-10-26T07:57:02.071Z,17.6
2022-10-26T08:02:02.901Z,17.8
2022-10-26T08:07:01.624Z,17.7
2022-10-26T08:12:01.657Z,17.8
2022-10-26T08:17:01.700Z,17.6
2022-10-26T08:22:01.754Z,18.7
2022-10-26T08:27:01.663Z,18.5
2022-10-26T08:32:02.069Z,17.4
2022-10-26T08:37:01.646Z,18.3
2022-10-26T08:42:06.182Z,18.4
2022-10-26T08:47:07.582Z,17.8
2022-10-26T08:57:09.764Z,19.0
2022-10-26T09:02:01.695Z,18.0
2022-10-26T09:12:13.136Z,17.2
2022-10-26T09:17:01.593Z,16.7
2022-10-26T09:22:01.626Z,15.0
2022-10-26T09:27:01.798Z,14.9
2022-10-26T09:32:01.726Z,15.1
2022-10-26T09:37:01.617Z,15.4
2022-10-26T09:42:01.623Z,14.9
2022-10-26T09:47:01.643Z,15.4
2022-10-26T09:52:02.613Z,15.4
2022-10-26T09:57:02.427Z,14.7
2022-10-26T10:02:17.238Z,15.1
2022-10-26T10:07:01.633Z,15.4
2022-10-26T10:12:01.661Z,16.2
2022-10-26T10:17:01.740Z,16.2
2022-10-26T10:22:01.636Z,16.3
2022-10-26T10:27:01.638Z,15.5
2022-10-26T10:32:01.564Z,15.1
2022-10-26T10:37:03.225Z,13.5
2022-10-26T10:42:01.565Z,11.9
2022-10-26T10:47:01.554Z,11.2
2022-10-26T10:52:01.723Z,9.6
2022-10-26T10:57:16.927Z,9.2
2022-10-26T11:02:17.900Z,9.6
2022-10-26T11:07:01.516Z,10.0
2022-10-26T11:12:01.651Z,10.5
2022-10-26T11:17:01.486Z,10.6
2022-10-26T11:27:01.427Z,10.2
2022-10-26T11:32:01.506Z,10.2
2022-10-26T11:37:01.423Z,9.0
2022-10-26T11:42:01.493Z,9.0
2022-10-26T11:47:01.561Z,8.4
2022-10-26T11:52:09.506Z,7.5
2022-10-26T11:57:01.333Z,6.8
2022-10-26T12:07:01.217Z,6.6
2022-10-26T12:12:01.075Z,6.4
2022-10-26T12:22:01.543Z,6.2
2022-10-26T12:27:01.333Z,5.7
2022-10-26T12:32:01.651Z,6.0
2022-10-26T12:37:01.588Z,5.2
2022-10-26T12:42:01.419Z,4.4
2022-10-26T12:47:01.703Z,3.9
2022-10-26T12:57:01.901Z,1.6
2022-10-26T13:02:01.671Z,1.2
2022-10-26T13:07:01.331Z,1.1
2022-10-26T13:12:02.026Z,0.3
2022-10-26T13:27:01.621Z,0.3
2022-10-26T13:38:01.554Z,0.4
2022-10-26T13:43:01.433Z,0.4
2022-10-26T13:48:01.081Z,0.2
2022-10-26T13:53:01.593Z,0.4
2022-10-26T13:58:01.605Z,0.3
2022-10-26T14:08:01.726Z,0.4
2022-10-26T14:18:01.707Z,0.2
2022-10-26T14:28:01.701Z,0.3
2022-10-26T14:50:03.815Z,0.6
2022-10-26T14:55:01.858Z,0.3
2022-10-26T15:00:17.622Z,0.5
2022-10-26T15:05:15.563Z,1.2
2022-10-26T15:11:01.651Z,1.5
2022-10-26T15:16:01.648Z,1.8
2022-10-26T15:21:01.729Z,2.0
2022-10-26T15:36:01.633Z,1.6
2022-10-26T15:41:01.759Z,3.2
2022-10-26T15:46:01.638Z,4.0
2022-10-26T15:51:01.641Z,5.1
2022-10-26T15:56:05.153Z,5.9
2022-10-26T16:01:02.509Z,7.1
2022-10-26T16:06:01.623Z,6.2
2022-10-26T16:11:02.085Z,6.3
2022-10-26T16:16:01.483Z,6.6
2022-10-26T16:21:01.707Z,7.0
2022-10-26T16:26:01.657Z,6.9
2022-10-26T16:31:01.632Z,8.0
2022-10-26T16:36:06.750Z,9.2
2022-10-26T16:41:01.646Z,10.3
2022-10-26T16:46:06.368Z,11.5
2022-10-26T16:51:04.132Z,11.8
2022-10-26T16:56:04.227Z,12.0
2022-10-26T17:01:01.766Z,12.5
2022-10-26T17:06:01.698Z,12.9
2022-10-26T17:16:03.738Z,16.0
2022-10-26T17:21:01.637Z,17.6
2022-10-26T17:26:01.622Z,18.3
2022-10-26T17:31:01.674Z,19.0
2022-10-26T17:41:01.703Z,20.2
2022-10-26T17:46:01.605Z,22.2
2022-10-26T17:51:01.611Z,23.8
2022-10-26T17:56:01.751Z,25.3
2022-10-26T18:01:04.230Z,26.6
2022-10-26T18:06:01.621Z,25.0
2022-10-26T18:11:01.689Z,23.6
2022-10-26T18:16:01.752Z,22.6
2022-10-26T18:21:01.725Z,21.9
2022-10-26T18:26:14.105Z,22.2
2022-10-26T18:31:01.631Z,22.8
2022-10-26T18:36:01.691Z,23.0
2022-10-26T18:41:01.913Z,23.4
2022-10-26T18:46:01.614Z,24.3
2022-10-26T18:51:01.677Z,24.1
2022-10-26T18:56:03.135Z,25.6
2022-10-26T19:01:04.919Z,25.9
2022-10-26T19:06:01.805Z,22.4
2022-10-26T19:11:01.639Z,23.5
2022-10-26T19:16:01.696Z,24.5
2022-10-26T19:21:01.702Z,23.4
2022-10-26T19:26:03.046Z,23.8
2022-10-26T19:31:01.614Z,28.2
2022-10-26T19:36:01.709Z,26.4
2022-10-26T19:41:03.730Z,25.4
2022-10-26T19:46:01.622Z,24.9
2022-10-26T19:51:01.614Z,24.3
2022-10-26T19:56:01.619Z,23.8
2022-10-26T20:01:01.757Z,23.5
2022-10-26T20:06:01.617Z,24.3
2022-10-26T20:11:01.618Z,24.4
2022-10-26T20:16:01.618Z,24.1
2022-10-26T20:21:10.012Z,23.3
2022-10-26T20:26:01.739Z,24.0
2022-10-26T20:31:01.624Z,23.7
2022-10-26T20:36:01.686Z,24.2
2022-10-26T20:41:08.000Z,24.8
2022-10-26T20:46:01.939Z,25.0
2022-10-26T20:51:01.834Z,25.6
2022-10-26T20:56:01.652Z,26.2
2022-10-26T21:01:01.763Z,25.8
2022-10-26T21:06:01.637Z,25.9
2022-10-26T21:11:01.622Z,26.5
2022-10-26T21:16:01.621Z,26.2
2022-10-26T21:21:01.868Z,25.6
2022-10-26T21:26:01.722Z,25.5
2022-10-26T21:31:01.608Z,25.5
2022-10-26T21:36:03.363Z,25.7
2022-10-26T21:41:02.020Z,25.3
2022-10-26T21:46:04.028Z,25.5
2022-10-26T21:51:01.619Z,25.1
2022-10-26T21:56:01.875Z,24.4
2022-10-26T22:01:01.914Z,23.1
2022-10-26T22:06:01.720Z,22.0
2022-10-26T22:11:01.629Z,21.4
2022-10-26T22:16:01.611Z,20.5
2022-10-26T22:21:01.994Z,19.4
2022-10-26T22:26:01.678Z,19.8
2022-10-26T22:31:01.651Z,20.7
2022-10-26T22:36:01.626Z,19.8
2022-10-26T22:41:02.718Z,19.6
2022-10-26T22:46:01.637Z,19.2
2022-10-26T22:51:01.615Z,18.4
2022-10-26T22:56:01.626Z,16.8
2022-10-26T23:01:01.801Z,15.8
2022-10-26T23:06:01.632Z,15.3
2022-10-26T23:11:01.615Z,15.4
2022-10-26T23:16:01.874Z,15.0
2022-10-26T23:21:02.876Z,15.0
2022-10-26T23:26:01.728Z,14.9
2022-10-26T23:31:01.621Z,15.1
2022-10-26T23:36:01.629Z,14.6
2022-10-26T23:41:01.545Z,14.2
2022-10-26T23:46:01.621Z,13.6
2022-10-26T23:51:01.632Z,13.8
2022-10-26T23:56:01.618Z,13.1
